sensor_id;sensor_type;location;lat;lon;timestamp;temperature;humidity
27384;DHT22;14851;51.166;4.760;2023-02-21T00:02:22;8.50;99.90
27384;DHT22;14851;51.166;4.760;2023-02-21T00:05:06;8.50;99.90
27384;DHT22;14851;51.166;4.760;2023-02-21T00:07:53;8.50;99.90
27384;DHT22;14851;51.166;4.760;2023-02-21T00:10:37;8.50;99.90
27384;DHT22;14851;51.166;4.760;2023-02-21T00:13:21;8.50;99.90
27384;DHT22;14851;51.166;4.760;2023-02-21T00:16:05;8.50;99.90
27384;DHT22;14851;51.166;4.760;2023-02-21T00:18:50;8.50;99.90
27384;DHT22;14851;51.166;4.760;2023-02-21T00:21:37;8.40;99.90
27384;DHT22;14851;51.166;4.760;2023-02-21T00:24:21;8.40;99.90
27384;DHT22;14851;51.166;4.760;2023-02-21T00:27:06;8.40;99.90
27384;DHT22;14851;51.166;4.760;2023-02-21T00:29:51;8.40;99.90
27384;DHT22;14851;51.166;4.760;2023-02-21T00:32:35;8.40;99.90
27384;DHT22;14851;51.166;4.760;2023-02-21T00:35:19;8.40;99.90
27384;DHT22;14851;51.166;4.760;2023-02-21T00:38:04;8.40;99.90
27384;DHT22;14851;51.166;4.760;2023-02-21T00:40:48;8.40;99.90
27384;DHT22;14851;51.166;4.760;2023-02-21T00:43:34;8.40;99.90
27384;DHT22;14851;51.166;4.760;2023-02-21T00:46:19;8.40;99.90
27384;DHT22;14851;51.166;4.760;2023-02-21T00:49:05;8.30;99.90
27384;DHT22;14851;51.166;4.760;2023-02-21T00:51:50;8.40;99.90
27384;DHT22;14851;51.166;4.760;2023-02-21T00:54:35;8.40;99.90
27384;DHT22;14851;51.166;4.760;2023-02-21T00:57:20;8.40;99.90
27384;DHT22;14851;51.166;4.760;2023-02-21T01:00:07;8.30;99.90
27384;DHT22;14851;51.166;4.760;2023-02-21T01:02:52;8.30;99.90
27384;DHT22;14851;51.166;4.760;2023-02-21T01:05:37;8.30;99.90
27384;DHT22;14851;51.166;4.760;2023-02-21T01:08:21;8.30;99.90
27384;DHT22;14851;51.166;4.760;2023-02-21T01:11:12;8.30;99.90
27384;DHT22;14851;51.166;4.760;2023-02-21T01:13:56;8.30;99.90
27384;DHT22;14851;51.166;4.760;2023-02-21T01:16:41;8.30;99.90
27384;DHT22;14851;51.166;4.760;2023-02-21T01:19:28;8.30;99.90
27384;DHT22;14851;51.166;4.760;2023-02-21T01:22:13;8.30;99.90
27384;DHT22;14851;51.166;4.760;2023-02-21T01:24:57;8.30;99.90
27384;DHT22;14851;51.166;4.760;2023-02-21T01:27:41;8.20;99.90
27384;DHT22;14851;51.166;4.760;2023-02-21T01:30:28;8.30;99.90
27384;DHT22;14851;51.166;4.760;2023-02-21T01:33:13;8.20;99.90
27384;DHT22;14851;51.166;4.760;2023-02-21T01:36:00;8.20;99.90
27384;DHT22;14851;51.166;4.760;2023-02-21T01:38:44;8.20;99.90
27384;DHT22;14851;51.166;4.760;2023-02-21T01:41:29;8.20;99.90
27384;DHT22;14851;51.166;4.760;2023-02-21T01:44:33;8.20;99.90
27384;DHT22;14851;51.166;4.760;2023-02-21T01:47:19;8.20;99.90
27384;DHT22;14851;51.166;4.760;2023-02-21T01:50:13;8.20;99.90
27384;DHT22;14851;51.166;4.760;2023-02-21T01:53:03;8.20;99.90
27384;DHT22;14851;51.166;4.760;2023-02-21T01:55:51;8.20;99.90
27384;DHT22;14851;51.166;4.760;2023-02-21T01:58:37;8.20;99.90
27384;DHT22;14851;51.166;4.760;2023-02-21T02:01:40;8.20;99.90
27384;DHT22;14851;51.166;4.760;2023-02-21T02:04:27;8.20;99.90
27384;DHT22;14851;51.166;4.760;2023-02-21T02:07:11;8.20;99.90
27384;DHT22;14851;51.166;4.760;2023-02-21T02:09:56;8.20;99.90
27384;DHT22;14851;51.166;4.760;2023-02-21T02:13:08;8.20;99.90
27384;DHT22;14851;51.166;4.760;2023-02-21T02:30:05;8.10;99.90
27384;DHT22;14851;51.166;4.760;2023-02-21T02:40:58;8.10;99.90
27384;DHT22;14851;51.166;4.760;2023-02-21T02:43:26;8.10;99.90
27384;DHT22;14851;51.166;4.760;2023-02-21T02:46:16;8.10;99.90
27384;DHT22;14851;51.166;4.760;2023-02-21T02:48:57;8.10;99.90
27384;DHT22;14851;51.166;4.760;2023-02-21T02:51:26;8.10;99.90
27384;DHT22;14851;51.166;4.760;2023-02-21T02:53:57;8.10;99.90
27384;DHT22;14851;51.166;4.760;2023-02-21T02:56:25;8.10;99.90
27384;DHT22;14851;51.166;4.760;2023-02-21T02:59:10;8.10;99.90
27384;DHT22;14851;51.166;4.760;2023-02-21T03:07:06;8.00;99.90
27384;DHT22;14851;51.166;4.760;2023-02-21T03:15:11;8.10;99.90
27384;DHT22;14851;51.166;4.760;2023-02-21T03:17:43;8.00;99.90
27384;DHT22;14851;51.166;4.760;2023-02-21T03:20:14;8.00;99.90
27384;DHT22;14851;51.166;4.760;2023-02-21T03:22:44;8.00;99.90
27384;DHT22;14851;51.166;4.760;2023-02-21T03:25:14;8.00;99.90
27384;DHT22;14851;51.166;4.760;2023-02-21T03:27:45;7.90;99.90
27384;DHT22;14851;51.166;4.760;2023-02-21T03:30:18;7.90;99.90
27384;DHT22;14851;51.166;4.760;2023-02-21T03:32:50;7.90;99.90
27384;DHT22;14851;51.166;4.760;2023-02-21T03:35:18;7.90;99.90
27384;DHT22;14851;51.166;4.760;2023-02-21T03:37:48;8.00;99.90
27384;DHT22;14851;51.166;4.760;2023-02-21T03:40:26;7.90;99.90
27384;DHT22;14851;51.166;4.760;2023-02-21T03:43:00;7.90;99.90
27384;DHT22;14851;51.166;4.760;2023-02-21T03:45:30;7.90;99.90
27384;DHT22;14851;51.166;4.760;2023-02-21T03:48:15;7.90;99.90
27384;DHT22;14851;51.166;4.760;2023-02-21T03:50:42;7.90;99.90
27384;DHT22;14851;51.166;4.760;2023-02-21T03:53:09;7.90;99.90
27384;DHT22;14851;51.166;4.760;2023-02-21T03:55:36;7.90;99.90
27384;DHT22;14851;51.166;4.760;2023-02-21T03:58:08;7.90;99.90
27384;DHT22;14851;51.166;4.760;2023-02-21T04:00:36;7.90;99.90
27384;DHT22;14851;51.166;4.760;2023-02-21T04:03:06;7.90;99.90
27384;DHT22;14851;51.166;4.760;2023-02-21T04:05:42;7.90;99.90
27384;DHT22;14851;51.166;4.760;2023-02-21T04:08:09;7.90;99.90
27384;DHT22;14851;51.166;4.760;2023-02-21T04:10:38;7.90;99.90
27384;DHT22;14851;51.166;4.760;2023-02-21T04:13:05;7.90;99.90
27384;DHT22;14851;51.166;4.760;2023-02-21T04:15:38;7.90;99.90
27384;DHT22;14851;51.166;4.760;2023-02-21T04:18:04;7.90;99.90
27384;DHT22;14851;51.166;4.760;2023-02-21T04:20:30;7.90;99.90
27384;DHT22;14851;51.166;4.760;2023-02-21T04:22:58;7.90;99.90
27384;DHT22;14851;51.166;4.760;2023-02-21T04:25:24;7.90;99.90
27384;DHT22;14851;51.166;4.760;2023-02-21T04:27:56;7.90;99.90
27384;DHT22;14851;51.166;4.760;2023-02-21T04:30:22;7.90;99.90
27384;DHT22;14851;51.166;4.760;2023-02-21T04:32:49;7.90;99.90
27384;DHT22;14851;51.166;4.760;2023-02-21T04:35:17;7.90;99.90
27384;DHT22;14851;51.166;4.760;2023-02-21T04:37:44;7.90;99.90
27384;DHT22;14851;51.166;4.760;2023-02-21T04:40:12;7.90;99.90
27384;DHT22;14851;51.166;4.760;2023-02-21T04:42:40;7.90;99.90
27384;DHT22;14851;51.166;4.760;2023-02-21T04:45:06;7.90;99.90
27384;DHT22;14851;51.166;4.760;2023-02-21T04:47:32;7.90;99.90
27384;DHT22;14851;51.166;4.760;2023-02-21T04:49:58;7.80;99.90
27384;DHT22;14851;51.166;4.760;2023-02-21T04:52:24;7.80;99.90
27384;DHT22;14851;51.166;4.760;2023-02-21T04:54:50;7.80;99.90
27384;DHT22;14851;51.166;4.760;2023-02-21T04:57:16;7.80;99.90
27384;DHT22;14851;51.166;4.760;2023-02-21T04:59:42;7.80;99.90
27384;DHT22;14851;51.166;4.760;2023-02-21T05:02:09;7.70;99.90
27384;DHT22;14851;51.166;4.760;2023-02-21T05:04:35;7.80;99.90
27384;DHT22;14851;51.166;4.760;2023-02-21T05:07:02;7.70;99.90
27384;DHT22;14851;51.166;4.760;2023-02-21T05:09:28;7.80;99.90
27384;DHT22;14851;51.166;4.760;2023-02-21T05:11:58;7.80;99.90
27384;DHT22;14851;51.166;4.760;2023-02-21T05:14:24;7.80;99.90
27384;DHT22;14851;51.166;4.760;2023-02-21T05:16:50;7.90;99.90
27384;DHT22;14851;51.166;4.760;2023-02-21T05:19:20;7.80;99.90
27384;DHT22;14851;51.166;4.760;2023-02-21T05:21:58;7.80;99.90
27384;DHT22;14851;51.166;4.760;2023-02-21T05:24:25;7.70;99.90
27384;DHT22;14851;51.166;4.760;2023-02-21T05:26:54;7.80;99.90
27384;DHT22;14851;51.166;4.760;2023-02-21T05:29:21;7.70;99.90
27384;DHT22;14851;51.166;4.760;2023-02-21T05:31:47;7.70;99.90
27384;DHT22;14851;51.166;4.760;2023-02-21T05:34:14;7.70;99.90
27384;DHT22;14851;51.166;4.760;2023-02-21T05:36:40;7.80;99.90
27384;DHT22;14851;51.166;4.760;2023-02-21T05:39:07;7.80;99.90
27384;DHT22;14851;51.166;4.760;2023-02-21T05:41:33;7.80;99.90
27384;DHT22;14851;51.166;4.760;2023-02-21T05:44:00;7.70;99.90
27384;DHT22;14851;51.166;4.760;2023-02-21T05:46:32;7.70;99.90
27384;DHT22;14851;51.166;4.760;2023-02-21T05:49:00;7.70;99.90
27384;DHT22;14851;51.166;4.760;2023-02-21T05:51:36;7.70;99.90
27384;DHT22;14851;51.166;4.760;2023-02-21T05:54:06;7.70;99.90
27384;DHT22;14851;51.166;4.760;2023-02-21T05:56:41;7.70;99.90
27384;DHT22;14851;51.166;4.760;2023-02-21T05:59:07;7.70;99.90
27384;DHT22;14851;51.166;4.760;2023-02-21T06:01:34;7.70;99.90
27384;DHT22;14851;51.166;4.760;2023-02-21T06:04:00;7.70;99.90
27384;DHT22;14851;51.166;4.760;2023-02-21T06:06:26;7.70;99.90
27384;DHT22;14851;51.166;4.760;2023-02-21T06:08:52;7.70;99.90
27384;DHT22;14851;51.166;4.760;2023-02-21T06:11:26;7.60;99.90
27384;DHT22;14851;51.166;4.760;2023-02-21T06:13:54;7.70;99.90
27384;DHT22;14851;51.166;4.760;2023-02-21T06:16:21;7.70;99.90
27384;DHT22;14851;51.166;4.760;2023-02-21T06:18:52;7.70;99.90
27384;DHT22;14851;51.166;4.760;2023-02-21T06:21:18;7.80;99.90
27384;DHT22;14851;51.166;4.760;2023-02-21T06:23:47;7.70;99.90
27384;DHT22;14851;51.166;4.760;2023-02-21T06:26:14;7.70;99.90
27384;DHT22;14851;51.166;4.760;2023-02-21T06:28:40;7.70;99.90
27384;DHT22;14851;51.166;4.760;2023-02-21T06:31:06;7.60;99.90
27384;DHT22;14851;51.166;4.760;2023-02-21T06:33:32;7.60;99.90
27384;DHT22;14851;51.166;4.760;2023-02-21T06:36:01;7.60;99.90
27384;DHT22;14851;51.166;4.760;2023-02-21T06:38:30;7.60;99.90
27384;DHT22;14851;51.166;4.760;2023-02-21T06:40:56;7.60;99.90
27384;DHT22;14851;51.166;4.760;2023-02-21T06:43:21;7.60;99.90
27384;DHT22;14851;51.166;4.760;2023-02-21T06:45:49;7.70;99.90
27384;DHT22;14851;51.166;4.760;2023-02-21T06:48:16;7.60;99.90
27384;DHT22;14851;51.166;4.760;2023-02-21T06:50:42;7.60;99.90
27384;DHT22;14851;51.166;4.760;2023-02-21T06:53:08;7.60;99.90
27384;DHT22;14851;51.166;4.760;2023-02-21T06:55:34;7.60;99.90
27384;DHT22;14851;51.166;4.760;2023-02-21T06:58:00;7.60;99.90
27384;DHT22;14851;51.166;4.760;2023-02-21T07:00:25;7.50;99.90
27384;DHT22;14851;51.166;4.760;2023-02-21T07:02:52;7.50;99.90
27384;DHT22;14851;51.166;4.760;2023-02-21T07:05:18;7.40;99.90
27384;DHT22;14851;51.166;4.760;2023-02-21T07:07:45;7.40;99.90
27384;DHT22;14851;51.166;4.760;2023-02-21T07:10:11;7.50;99.90
27384;DHT22;14851;51.166;4.760;2023-02-21T07:12:38;7.50;99.90
27384;DHT22;14851;51.166;4.760;2023-02-21T07:15:08;7.50;99.90
27384;DHT22;14851;51.166;4.760;2023-02-21T07:17:36;7.50;99.90
27384;DHT22;14851;51.166;4.760;2023-02-21T07:20:02;7.50;99.90
27384;DHT22;14851;51.166;4.760;2023-02-21T07:22:29;7.60;99.90
27384;DHT22;14851;51.166;4.760;2023-02-21T07:24:58;7.50;99.90
27384;DHT22;14851;51.166;4.760;2023-02-21T07:27:24;7.50;99.90
27384;DHT22;14851;51.166;4.760;2023-02-21T07:29:50;7.50;99.90
27384;DHT22;14851;51.166;4.760;2023-02-21T07:32:16;7.50;99.90
27384;DHT22;14851;51.166;4.760;2023-02-21T07:34:43;7.50;99.90
27384;DHT22;14851;51.166;4.760;2023-02-21T07:37:09;7.50;99.90
27384;DHT22;14851;51.166;4.760;2023-02-21T07:39:35;7.50;99.90
27384;DHT22;14851;51.166;4.760;2023-02-21T07:42:03;7.50;99.90
27384;DHT22;14851;51.166;4.760;2023-02-21T07:44:29;7.50;99.90
27384;DHT22;14851;51.166;4.760;2023-02-21T07:46:56;7.50;99.90
27384;DHT22;14851;51.166;4.760;2023-02-21T07:49:22;7.40;99.90
27384;DHT22;14851;51.166;4.760;2023-02-21T07:51:48;7.40;99.90
27384;DHT22;14851;51.166;4.760;2023-02-21T07:54:15;7.40;99.90
27384;DHT22;14851;51.166;4.760;2023-02-21T07:56:44;7.40;99.90
27384;DHT22;14851;51.166;4.760;2023-02-21T07:59:10;7.50;99.90
27384;DHT22;14851;51.166;4.760;2023-02-21T08:01:36;7.40;99.90
27384;DHT22;14851;51.166;4.760;2023-02-21T08:04:04;7.40;99.90
27384;DHT22;14851;51.166;4.760;2023-02-21T08:06:32;7.50;99.90
27384;DHT22;14851;51.166;4.760;2023-02-21T08:08:58;7.60;99.90
27384;DHT22;14851;51.166;4.760;2023-02-21T08:11:23;7.50;99.90
27384;DHT22;14851;51.166;4.760;2023-02-21T08:13:49;7.50;99.90
27384;DHT22;14851;51.166;4.760;2023-02-21T08:16:17;7.50;99.90
27384;DHT22;14851;51.166;4.760;2023-02-21T08:18:46;7.50;99.90
27384;DHT22;14851;51.166;4.760;2023-02-21T08:21:12;7.60;99.90
27384;DHT22;14851;51.166;4.760;2023-02-21T08:23:41;7.50;99.90
27384;DHT22;14851;51.166;4.760;2023-02-21T08:26:07;7.40;99.90
27384;DHT22;14851;51.166;4.760;2023-02-21T08:28:33;7.40;99.90
27384;DHT22;14851;51.166;4.760;2023-02-21T08:30:59;7.50;99.90
27384;DHT22;14851;51.166;4.760;2023-02-21T08:33:27;7.40;99.90
27384;DHT22;14851;51.166;4.760;2023-02-21T08:35:53;7.60;99.90
27384;DHT22;14851;51.166;4.760;2023-02-21T08:38:20;7.50;99.90
27384;DHT22;14851;51.166;4.760;2023-02-21T08:40:46;7.40;99.90
27384;DHT22;14851;51.166;4.760;2023-02-21T08:43:14;7.40;99.90
27384;DHT22;14851;51.166;4.760;2023-02-21T08:45:40;7.40;99.90
27384;DHT22;14851;51.166;4.760;2023-02-21T08:48:05;7.40;99.90
27384;DHT22;14851;51.166;4.760;2023-02-21T08:50:34;7.40;99.90
27384;DHT22;14851;51.166;4.760;2023-02-21T08:53:00;7.40;99.90
27384;DHT22;14851;51.166;4.760;2023-02-21T08:55:25;7.40;99.90
27384;DHT22;14851;51.166;4.760;2023-02-21T08:57:54;7.40;99.90
27384;DHT22;14851;51.166;4.760;2023-02-21T09:00:22;7.50;99.90
27384;DHT22;14851;51.166;4.760;2023-02-21T09:02:51;7.40;99.90
27384;DHT22;14851;51.166;4.760;2023-02-21T09:05:23;7.40;99.90
27384;DHT22;14851;51.166;4.760;2023-02-21T09:07:50;7.40;99.90
27384;DHT22;14851;51.166;4.760;2023-02-21T09:10:17;7.40;99.90
27384;DHT22;14851;51.166;4.760;2023-02-21T09:12:45;7.50;99.90
27384;DHT22;14851;51.166;4.760;2023-02-21T09:15:14;7.50;99.90
27384;DHT22;14851;51.166;4.760;2023-02-21T09:17:40;7.50;99.90
27384;DHT22;14851;51.166;4.760;2023-02-21T09:20:12;7.50;99.90
27384;DHT22;14851;51.166;4.760;2023-02-21T09:22:45;7.50;99.90
27384;DHT22;14851;51.166;4.760;2023-02-21T09:25:14;7.40;99.90
27384;DHT22;14851;51.166;4.760;2023-02-21T09:27:43;7.40;99.90
27384;DHT22;14851;51.166;4.760;2023-02-21T09:30:15;7.40;99.90
27384;DHT22;14851;51.166;4.760;2023-02-21T09:32:46;7.50;99.90
27384;DHT22;14851;51.166;4.760;2023-02-21T09:35:13;7.50;99.90
27384;DHT22;14851;51.166;4.760;2023-02-21T09:37:41;7.50;99.90
27384;DHT22;14851;51.166;4.760;2023-02-21T09:40:20;7.40;99.90
27384;DHT22;14851;51.166;4.760;2023-02-21T09:42:53;7.40;99.90
27384;DHT22;14851;51.166;4.760;2023-02-21T09:45:20;7.40;99.90
27384;DHT22;14851;51.166;4.760;2023-02-21T09:47:53;7.50;99.90
27384;DHT22;14851;51.166;4.760;2023-02-21T09:50:24;7.40;99.90
27384;DHT22;14851;51.166;4.760;2023-02-21T09:52:54;7.40;99.90
27384;DHT22;14851;51.166;4.760;2023-02-21T09:55:27;7.50;99.90
27384;DHT22;14851;51.166;4.760;2023-02-21T09:57:53;7.50;99.90
27384;DHT22;14851;51.166;4.760;2023-02-21T10:00:23;7.50;99.90
27384;DHT22;14851;51.166;4.760;2023-02-21T10:05:43;7.50;99.90
27384;DHT22;14851;51.166;4.760;2023-02-21T10:14:29;7.50;99.90
27384;DHT22;14851;51.166;4.760;2023-02-21T10:17:17;7.50;99.90
27384;DHT22;14851;51.166;4.760;2023-02-21T10:19:49;7.60;99.90
27384;DHT22;14851;51.166;4.760;2023-02-21T10:22:29;7.60;99.90
27384;DHT22;14851;51.166;4.760;2023-02-21T10:24:56;7.60;99.90
27384;DHT22;14851;51.166;4.760;2023-02-21T10:27:27;7.60;99.90
27384;DHT22;14851;51.166;4.760;2023-02-21T10:30:06;7.60;99.90
27384;DHT22;14851;51.166;4.760;2023-02-21T10:32:35;7.60;99.90
27384;DHT22;14851;51.166;4.760;2023-02-21T10:35:02;7.60;99.90
27384;DHT22;14851;51.166;4.760;2023-02-21T10:37:48;7.60;99.90
27384;DHT22;14851;51.166;4.760;2023-02-21T10:40:21;7.70;99.90
27384;DHT22;14851;51.166;4.760;2023-02-21T10:42:53;7.70;99.90
27384;DHT22;14851;51.166;4.760;2023-02-21T10:45:29;7.70;99.90
27384;DHT22;14851;51.166;4.760;2023-02-21T10:48:05;7.70;99.90
27384;DHT22;14851;51.166;4.760;2023-02-21T10:51:03;7.70;99.90
27384;DHT22;14851;51.166;4.760;2023-02-21T10:53:31;7.80;99.90
27384;DHT22;14851;51.166;4.760;2023-02-21T11:01:31;7.90;99.90
27384;DHT22;14851;51.166;4.760;2023-02-21T11:09:32;7.90;99.90
27384;DHT22;14851;51.166;4.760;2023-02-21T11:14:26;7.90;99.90
27384;DHT22;14851;51.166;4.760;2023-02-21T11:17:11;8.00;99.90
27384;DHT22;14851;51.166;4.760;2023-02-21T11:22:40;8.10;99.90
27384;DHT22;14851;51.166;4.760;2023-02-21T11:25:26;8.00;99.90
27384;DHT22;14851;51.166;4.760;2023-02-21T11:30:37;8.00;99.90
27384;DHT22;14851;51.166;4.760;2023-02-21T11:33:07;8.10;99.90
27384;DHT22;14851;51.166;4.760;2023-02-21T11:35:37;8.00;99.90
27384;DHT22;14851;51.166;4.760;2023-02-21T11:38:31;8.00;99.90
27384;DHT22;14851;51.166;4.760;2023-02-21T11:41:01;8.00;99.90
27384;DHT22;14851;51.166;4.760;2023-02-21T11:43:30;8.00;99.90
27384;DHT22;14851;51.166;4.760;2023-02-21T11:54:32;8.10;99.90
27384;DHT22;14851;51.166;4.760;2023-02-21T11:59:58;8.10;99.90
27384;DHT22;14851;51.166;4.760;2023-02-21T12:05:12;8.10;99.90
27384;DHT22;14851;51.166;4.760;2023-02-21T12:30:19;8.20;99.90
27384;DHT22;14851;51.166;4.760;2023-02-21T12:41:26;8.20;99.90
27384;DHT22;14851;51.166;4.760;2023-02-21T12:44:15;8.20;99.90
27384;DHT22;14851;51.166;4.760;2023-02-21T12:49:56;8.20;99.90
27384;DHT22;14851;51.166;4.760;2023-02-21T12:55:24;8.20;99.90
27384;DHT22;14851;51.166;4.760;2023-02-21T13:00:42;8.30;99.90
27384;DHT22;14851;51.166;4.760;2023-02-21T13:03:24;8.30;99.90
27384;DHT22;14851;51.166;4.760;2023-02-21T13:06:40;8.20;99.90
27384;DHT22;14851;51.166;4.760;2023-02-21T13:14:50;8.30;99.90
27384;DHT22;14851;51.166;4.760;2023-02-21T13:17:18;8.30;99.90
27384;DHT22;14851;51.166;4.760;2023-02-21T13:20:21;8.30;99.90
27384;DHT22;14851;51.166;4.760;2023-02-21T13:23:01;8.30;99.90
27384;DHT22;14851;51.166;4.760;2023-02-21T13:26:00;8.40;99.90
27384;DHT22;14851;51.166;4.760;2023-02-21T13:28:31;8.40;99.90
27384;DHT22;14851;51.166;4.760;2023-02-21T13:31:05;8.40;99.90
27384;DHT22;14851;51.166;4.760;2023-02-21T13:36:26;8.30;99.90
27384;DHT22;14851;51.166;4.760;2023-02-21T13:41:37;8.30;99.90
27384;DHT22;14851;51.166;4.760;2023-02-21T13:44:08;8.30;99.90
27384;DHT22;14851;51.166;4.760;2023-02-21T13:58:30;8.40;99.90
27384;DHT22;14851;51.166;4.760;2023-02-21T14:08:31;8.40;99.90
27384;DHT22;14851;51.166;4.760;2023-02-21T14:18:58;8.40;99.90
27384;DHT22;14851;51.166;4.760;2023-02-21T14:21:32;8.40;99.90
27384;DHT22;14851;51.166;4.760;2023-02-21T14:30:12;8.40;99.90
27384;DHT22;14851;51.166;4.760;2023-02-21T14:32:41;8.40;99.90
27384;DHT22;14851;51.166;4.760;2023-02-21T14:38:02;8.40;99.90
27384;DHT22;14851;51.166;4.760;2023-02-21T14:49:09;8.50;99.90
27384;DHT22;14851;51.166;4.760;2023-02-21T15:02:26;8.50;99.90
27384;DHT22;14851;51.166;4.760;2023-02-21T15:10:40;8.40;99.90
27384;DHT22;14851;51.166;4.760;2023-02-21T15:13:06;8.40;99.90
27384;DHT22;14851;51.166;4.760;2023-02-21T15:15:44;8.50;99.90
27384;DHT22;14851;51.166;4.760;2023-02-21T15:18:12;8.50;99.90
27384;DHT22;14851;51.166;4.760;2023-02-21T15:21:01;8.50;99.90
27384;DHT22;14851;51.166;4.760;2023-02-21T15:23:27;8.50;99.90
27384;DHT22;14851;51.166;4.760;2023-02-21T15:25:59;8.50;99.90
27384;DHT22;14851;51.166;4.760;2023-02-21T15:28:30;8.50;99.90
27384;DHT22;14851;51.166;4.760;2023-02-21T15:30:59;8.50;99.90
27384;DHT22;14851;51.166;4.760;2023-02-21T15:33:33;8.50;99.90
27384;DHT22;14851;51.166;4.760;2023-02-21T15:38:44;8.50;99.90
27384;DHT22;14851;51.166;4.760;2023-02-21T15:41:31;8.50;99.90
27384;DHT22;14851;51.166;4.760;2023-02-21T15:44:19;8.50;99.90
27384;DHT22;14851;51.166;4.760;2023-02-21T15:46:49;8.50;99.90
27384;DHT22;14851;51.166;4.760;2023-02-21T15:49:23;8.50;99.90
27384;DHT22;14851;51.166;4.760;2023-02-21T15:51:50;8.50;99.90
27384;DHT22;14851;51.166;4.760;2023-02-21T15:56:43;8.50;99.90
27384;DHT22;14851;51.166;4.760;2023-02-21T16:01:37;8.40;99.90
27384;DHT22;14851;51.166;4.760;2023-02-21T16:07:01;8.40;99.90
27384;DHT22;14851;51.166;4.760;2023-02-21T16:09:32;8.30;99.90
27384;DHT22;14851;51.166;4.760;2023-02-21T16:14:42;8.40;99.90
27384;DHT22;14851;51.166;4.760;2023-02-21T16:19:48;8.40;99.90
27384;DHT22;14851;51.166;4.760;2023-02-21T16:22:32;8.40;99.90
27384;DHT22;14851;51.166;4.760;2023-02-21T16:27:38;8.40;99.90
27384;DHT22;14851;51.166;4.760;2023-02-21T16:30:06;8.30;99.90
27384;DHT22;14851;51.166;4.760;2023-02-21T16:32:32;8.30;99.90
27384;DHT22;14851;51.166;4.760;2023-02-21T16:35:00;8.30;99.90
27384;DHT22;14851;51.166;4.760;2023-02-21T16:37:29;8.30;99.90
27384;DHT22;14851;51.166;4.760;2023-02-21T16:39:54;8.30;99.90
27384;DHT22;14851;51.166;4.760;2023-02-21T16:42:20;8.30;99.90
27384;DHT22;14851;51.166;4.760;2023-02-21T16:44:46;8.20;99.90
27384;DHT22;14851;51.166;4.760;2023-02-21T16:47:18;8.20;99.90
27384;DHT22;14851;51.166;4.760;2023-02-21T16:49:46;8.20;99.90
27384;DHT22;14851;51.166;4.760;2023-02-21T16:52:17;8.20;99.90
27384;DHT22;14851;51.166;4.760;2023-02-21T16:54:42;8.20;99.90
27384;DHT22;14851;51.166;4.760;2023-02-21T16:57:10;8.20;99.90
27384;DHT22;14851;51.166;4.760;2023-02-21T16:59:36;8.20;99.90
27384;DHT22;14851;51.166;4.760;2023-02-21T17:02:03;8.20;99.90
27384;DHT22;14851;51.166;4.760;2023-02-21T17:04:29;8.10;99.90
27384;DHT22;14851;51.166;4.760;2023-02-21T17:07:01;8.10;99.90
27384;DHT22;14851;51.166;4.760;2023-02-21T17:09:29;8.10;99.90
27384;DHT22;14851;51.166;4.760;2023-02-21T17:12:00;8.00;99.90
27384;DHT22;14851;51.166;4.760;2023-02-21T17:14:26;8.00;99.90
27384;DHT22;14851;51.166;4.760;2023-02-21T17:16:52;8.00;99.90
27384;DHT22;14851;51.166;4.760;2023-02-21T17:19:21;7.90;99.90
27384;DHT22;14851;51.166;4.760;2023-02-21T17:21:47;7.90;99.90
27384;DHT22;14851;51.166;4.760;2023-02-21T17:24:14;7.90;99.90
27384;DHT22;14851;51.166;4.760;2023-02-21T17:26:42;7.90;99.90
27384;DHT22;14851;51.166;4.760;2023-02-21T17:29:11;7.90;99.90
27384;DHT22;14851;51.166;4.760;2023-02-21T17:31:37;7.90;99.90
27384;DHT22;14851;51.166;4.760;2023-02-21T17:34:03;7.90;99.90
27384;DHT22;14851;51.166;4.760;2023-02-21T17:36:32;7.90;99.90
27384;DHT22;14851;51.166;4.760;2023-02-21T17:38:58;7.90;99.90
27384;DHT22;14851;51.166;4.760;2023-02-21T17:41:24;7.90;99.90
27384;DHT22;14851;51.166;4.760;2023-02-21T17:43:51;7.90;99.90
27384;DHT22;14851;51.166;4.760;2023-02-21T17:46:18;7.90;99.90
27384;DHT22;14851;51.166;4.760;2023-02-21T17:48:44;7.90;99.90
27384;DHT22;14851;51.166;4.760;2023-02-21T17:51:17;7.90;99.90
27384;DHT22;14851;51.166;4.760;2023-02-21T17:53:45;7.90;99.90
27384;DHT22;14851;51.166;4.760;2023-02-21T17:56:16;7.90;99.90
27384;DHT22;14851;51.166;4.760;2023-02-21T17:58:46;7.90;99.90
27384;DHT22;14851;51.166;4.760;2023-02-21T18:01:19;7.90;99.90
27384;DHT22;14851;51.166;4.760;2023-02-21T18:03:46;7.90;99.90
27384;DHT22;14851;51.166;4.760;2023-02-21T18:06:13;7.80;99.90
27384;DHT22;14851;51.166;4.760;2023-02-21T18:08:40;7.80;99.90
27384;DHT22;14851;51.166;4.760;2023-02-21T18:11:10;7.80;99.90
27384;DHT22;14851;51.166;4.760;2023-02-21T18:13:36;7.90;99.90
27384;DHT22;14851;51.166;4.760;2023-02-21T18:16:02;7.80;99.90
27384;DHT22;14851;51.166;4.760;2023-02-21T18:18:30;7.80;99.90
27384;DHT22;14851;51.166;4.760;2023-02-21T18:20:56;7.80;99.90
27384;DHT22;14851;51.166;4.760;2023-02-21T18:23:25;7.80;99.90
27384;DHT22;14851;51.166;4.760;2023-02-21T18:25:51;7.80;99.90
27384;DHT22;14851;51.166;4.760;2023-02-21T18:28:17;7.70;99.90
27384;DHT22;14851;51.166;4.760;2023-02-21T18:30:43;7.70;99.90
27384;DHT22;14851;51.166;4.760;2023-02-21T18:33:09;7.70;99.90
27384;DHT22;14851;51.166;4.760;2023-02-21T18:35:35;7.70;99.90
27384;DHT22;14851;51.166;4.760;2023-02-21T18:38:03;7.80;99.90
27384;DHT22;14851;51.166;4.760;2023-02-21T18:40:29;7.80;99.90
27384;DHT22;14851;51.166;4.760;2023-02-21T18:43:21;7.70;99.90
27384;DHT22;14851;51.166;4.760;2023-02-21T18:45:51;7.70;99.90
27384;DHT22;14851;51.166;4.760;2023-02-21T18:48:18;7.70;99.90
27384;DHT22;14851;51.166;4.760;2023-02-21T18:50:44;7.60;99.90
27384;DHT22;14851;51.166;4.760;2023-02-21T18:53:11;7.60;99.90
27384;DHT22;14851;51.166;4.760;2023-02-21T18:55:37;7.60;99.90
27384;DHT22;14851;51.166;4.760;2023-02-21T18:58:05;7.50;99.90
27384;DHT22;14851;51.166;4.760;2023-02-21T19:00:31;7.40;99.90
27384;DHT22;14851;51.166;4.760;2023-02-21T19:02:59;7.40;99.90
27384;DHT22;14851;51.166;4.760;2023-02-21T19:05:26;7.40;99.90
27384;DHT22;14851;51.166;4.760;2023-02-21T19:07:52;7.50;99.90
27384;DHT22;14851;51.166;4.760;2023-02-21T19:10:23;7.40;99.90
27384;DHT22;14851;51.166;4.760;2023-02-21T19:12:49;7.40;99.90
27384;DHT22;14851;51.166;4.760;2023-02-21T19:15:16;7.30;99.90
27384;DHT22;14851;51.166;4.760;2023-02-21T19:17:42;7.30;99.90
27384;DHT22;14851;51.166;4.760;2023-02-21T19:20:11;7.30;99.90
27384;DHT22;14851;51.166;4.760;2023-02-21T19:22:37;7.20;99.90
27384;DHT22;14851;51.166;4.760;2023-02-21T19:25:04;7.10;99.90
27384;DHT22;14851;51.166;4.760;2023-02-21T19:27:30;7.10;99.90
27384;DHT22;14851;51.166;4.760;2023-02-21T19:29:56;7.10;99.90
27384;DHT22;14851;51.166;4.760;2023-02-21T19:32:23;7.10;99.90
27384;DHT22;14851;51.166;4.760;2023-02-21T19:34:49;7.10;99.90
27384;DHT22;14851;51.166;4.760;2023-02-21T19:37:16;7.10;99.90
27384;DHT22;14851;51.166;4.760;2023-02-21T19:39:42;7.10;99.90
27384;DHT22;14851;51.166;4.760;2023-02-21T19:42:08;7.10;99.90